This is the latest recevied weather packets stored in our database for station/object CE6PL-10. If no packets are shown the sender has not sent any weather packets the latest 10 day(s).
| Time | Temp. | Humidity | Pressure | Rain* | Wind** | Luminosity | Snow |
|---|---|---|---|---|---|---|---|
| 1787593441 | 11.67° C | 68% | 1015.5 hPa | - | - | - | - |
| 1787592541 | 11.67° C | 66% | 1015.4 hPa | - | - | - | - |
| 1787591641 | 11.67° C | 65% | 1015.7 hPa | - | - | - | - |
| 1787590741 | 11.11° C | 66% | 1016 hPa | - | - | - | - |
| 1787589840 | 11.67° C | 66% | 1016.5 hPa | - | - | - | - |
| 1787588940 | 11.67° C | 68% | 1016.9 hPa | - | - | - | - |
| 1787588040 | 10.56° C | 70% | 1017.7 hPa | - | - | - | - |
| 1787587140 | 10° C | 74% | 1017.8 hPa | - | - | - | - |
| 1787586240 | 9.44° C | 74% | 1016.4 hPa | - | - | - | - |
| 1787585340 | 9.44° C | 81% | 1017 hPa | - | - | - | - |
| 1787584439 | 8.89° C | 75% | 1017.5 hPa | - | - | - | - |
| 1787583539 | 8.89° C | 82% | 1017.4 hPa | - | - | - | - |
| 1787582639 | 8.33° C | 79% | 1017.2 hPa | - | - | - | - |
| 1787581739 | 8.33° C | 82% | 1017.2 hPa | - | - | - | - |
| 1787580839 | 8.33° C | 85% | 1017.7 hPa | - | - | - | - |
| 1787579939 | 8.33° C | 79% | 1018 hPa | - | - | - | - |
| 1787579038 | 7.78° C | 87% | 1017.8 hPa | - | - | - | - |
| 1787578138 | 7.78° C | 86% | 1017.5 hPa | - | - | - | - |
| 1787577238 | 7.78° C | 79% | 1017.1 hPa | - | - | - | - |
| 1787576338 | 7.78° C | 78% | 1016.9 hPa | - | - | - | - |
| 1787575438 | 7.22° C | 87% | 1016.3 hPa | - | - | - | - |
| 1787574538 | 6.67° C | 88% | 1015.9 hPa | - | - | - | - |
| 1787573637 | 6.11° C | 93% | 1015.4 hPa | - | - | - | - |
| 1787572737 | 7.22° C | 81% | 1015.4 hPa | - | - | - | - |
| 1787571837 | 6.11° C | 89% | 1014.8 hPa | - | - | - | - |
* Rain since midnight (hover to see other rain measurements)
** Current wind speed in m/s (hover to see current wind gust speed)